Cotes De La Manche — FQBE — position and weather

sailwx.info

Track history (hours):
 
Tides and Currents Weather Stations Pressure Air Temp Water Temp Dewpoint Dewpoint Depression Visibility Wind Speed Wind Dir Waves Ship Positions

Cotes De La Manche

Last reported at 2014-Oct-23 00:33 UTC. Time now 2014-Oct-23 00:46 UTC.
Position N 48°23' W 004°29'.

Length 25 m; draft 3.7 m.

Type: Other ship. MMSI: 227091000.

Date/timePositionNaut miles runAvg speedWind from/ knotsBaromVisibWave heightAir tempDewpointWater temp
2014-Oct-23 00:33N 48°23' W 004°29'0 0.0
2014-Oct-22 23:34N 48°23' W 004°29'0 0.0
2014-Oct-22 22:34N 48°23' W 004°29'0 0.0
2014-Oct-22 21:34N 48°23' W 004°29'0 0.0
2014-Oct-22 20:33N 48°23' W 004°29'0 0.0
2014-Oct-22 19:34N 48°23' W 004°29'0 0.0
2014-Oct-22 18:33N 48°23' W 004°29'0 0.0
2014-Oct-22 17:33N 48°23' W 004°29'0 0.0
2014-Oct-22 16:33N 48°23' W 004°29'0 0.0
2014-Oct-22 15:33N 48°23' W 004°29'0 0.0
2014-Oct-22 14:33N 48°23' W 004°29'0 0.0
2014-Oct-22 13:33N 48°23' W 004°29'0 0.0
2014-Oct-22 12:34N 48°23' W 004°29'0 0.0
2014-Oct-22 11:33N 48°23' W 004°29'0 0.0
2014-Oct-22 10:33N 48°23' W 004°29'0 0.0
2014-Oct-22 09:33N 48°23' W 004°29'1 0.9
2014-Oct-22 08:33N 48°22' W 004°29'1 0.8
2014-Oct-22 07:33N 48°23' W 004°29'0 0.0
2014-Oct-22 06:34N 48°23' W 004°29'0 0.0
2014-Oct-22 05:33N 48°23' W 004°29'0 0.0
2014-Oct-22 04:34N 48°23' W 004°29'0 0.0
2014-Oct-22 03:33N 48°23' W 004°29'0 0.0
2014-Oct-22 02:34N 48°23' W 004°29'0 0.0
2014-Oct-22 01:33N 48°23' W 004°29'0 0.0
2014-Oct-22 00:33N 48°23' W 004°29'0 0.0
2014-Oct-21 23:33N 48°23' W 004°29'0 0.0
2014-Oct-21 22:34N 48°23' W 004°29'0 0.0
2014-Oct-21 21:33N 48°23' W 004°29'0 0.0
2014-Oct-21 20:34N 48°23' W 004°29'0 0.0
2014-Oct-21 19:34N 48°23' W 004°29'0 0.0
2014-Oct-21 18:33N 48°23' W 004°29'0 0.0
2014-Oct-21 17:33N 48°23' W 004°29'0 0.0
2014-Oct-21 16:33N 48°23' W 004°29'0 0.0
2014-Oct-21 15:33N 48°23' W 004°29'0 0.0
2014-Oct-21 14:34N 48°23' W 004°29'0 0.0
2014-Oct-21 13:33N 48°23' W 004°29'0 0.0
2014-Oct-21 12:33N 48°23' W 004°29'0 0.0
2014-Oct-21 11:33N 48°23' W 004°29'0 0.0
2014-Oct-21 10:33N 48°23' W 004°29'0 0.0
2014-Oct-21 09:33N 48°23' W 004°29'0 0.0
2014-Oct-21 08:34N 48°23' W 004°29'0 0.0
2014-Oct-21 07:34N 48°23' W 004°29'0 0.0
2014-Oct-21 06:33N 48°23' W 004°29'0 0.0
2014-Oct-21 05:33N 48°23' W 004°29'0 0.0
2014-Oct-21 04:33N 48°23' W 004°29'0 0.0
2014-Oct-21 03:33N 48°23' W 004°29'0 0.0
2014-Oct-21 02:33N 48°23' W 004°29'0 0.0
2014-Oct-21 01:34N 48°23' W 004°29'0 0.0
2014-Oct-21 00:33N 48°23' W 004°29'0 0.0
2014-Oct-20 23:33N 48°23' W 004°29'0 0.0
2014-Oct-20 22:33N 48°23' W 004°29'0 0.0
2014-Oct-20 21:33N 48°23' W 004°29'0 0.0
2014-Oct-20 20:34N 48°23' W 004°29'0 0.0
2014-Oct-20 19:33N 48°23' W 004°29'1 0.8
2014-Oct-20 18:34N 48°22' W 004°29'9 8.8
2014-Oct-20 17:34N 48°18' W 004°41'8 8.4
2014-Oct-20 16:33N 48°11' W 004°48'9 9.3
2014-Oct-20 15:34N 48°02' W 004°46'134 9.5
2014-Oct-20 01:32N 46°40' W 002°10'9 9.2
2014-Oct-20 00:33N 46°32' W 002°03'9 9.0
2014-Oct-19 23:34N 46°24' W 001°58'9 9.3
2014-Oct-19 22:34N 46°16' W 001°52'  
2014-Oct-13 13:07N 46°16' W 001°42'5 9.8
2014-Oct-13 12:33N 46°21' W 001°47'10 9.8
2014-Oct-13 11:33N 46°29' W 001°55'7110.2
2014-Oct-13 04:33N 47°26' W 002°57'6 5.2
2014-Oct-13 03:22N 47°29' W 003°05'0 0.0
2014-Oct-13 02:33N 47°29' W 003°05'0 0.0
2014-Oct-13 01:33N 47°29' W 003°05'  
Track history (hours):
 
Tides and Currents Weather Stations Pressure Air Temp Water Temp Dewpoint Dewpoint Depression Visibility Wind Speed Wind Dir Waves Ship Positions

Cotes De La Manche

Last reported at 2014-Oct-23 00:33 UTC. Time now 2014-Oct-23 00:46 UTC.
Position N 48°23' W 004°29'.

Length 25 m; draft 3.7 m.

Type: Other ship. MMSI: 227091000.

Date/timePositionNaut miles runAvg speedWind from/ knotsBaromVisibWave heightAir tempDewpointWater temp
2014-Oct-23 00:33N 48°23' W 004°29'0 0.0
2014-Oct-22 23:34N 48°23' W 004°29'0 0.0
2014-Oct-22 22:34N 48°23' W 004°29'0 0.0
2014-Oct-22 21:34N 48°23' W 004°29'0 0.0
2014-Oct-22 20:33N 48°23' W 004°29'0 0.0
2014-Oct-22 19:34N 48°23' W 004°29'0 0.0
2014-Oct-22 18:33N 48°23' W 004°29'0 0.0
2014-Oct-22 17:33N 48°23' W 004°29'0 0.0
2014-Oct-22 16:33N 48°23' W 004°29'0 0.0
2014-Oct-22 15:33N 48°23' W 004°29'0 0.0
2014-Oct-22 14:33N 48°23' W 004°29'0 0.0
2014-Oct-22 13:33N 48°23' W 004°29'0 0.0
2014-Oct-22 12:34N 48°23' W 004°29'0 0.0
2014-Oct-22 11:33N 48°23' W 004°29'0 0.0
2014-Oct-22 10:33N 48°23' W 004°29'0 0.0
2014-Oct-22 09:33N 48°23' W 004°29'1 0.9
2014-Oct-22 08:33N 48°22' W 004°29'1 0.8
2014-Oct-22 07:33N 48°23' W 004°29'0 0.0
2014-Oct-22 06:34N 48°23' W 004°29'0 0.0
2014-Oct-22 05:33N 48°23' W 004°29'0 0.0
2014-Oct-22 04:34N 48°23' W 004°29'0 0.0
2014-Oct-22 03:33N 48°23' W 004°29'0 0.0
2014-Oct-22 02:34N 48°23' W 004°29'0 0.0
2014-Oct-22 01:33N 48°23' W 004°29'0 0.0
2014-Oct-22 00:33N 48°23' W 004°29'0 0.0
2014-Oct-21 23:33N 48°23' W 004°29'0 0.0
2014-Oct-21 22:34N 48°23' W 004°29'0 0.0
2014-Oct-21 21:33N 48°23' W 004°29'0 0.0
2014-Oct-21 20:34N 48°23' W 004°29'0 0.0
2014-Oct-21 19:34N 48°23' W 004°29'0 0.0
2014-Oct-21 18:33N 48°23' W 004°29'0 0.0
2014-Oct-21 17:33N 48°23' W 004°29'0 0.0
2014-Oct-21 16:33N 48°23' W 004°29'0 0.0
2014-Oct-21 15:33N 48°23' W 004°29'0 0.0
2014-Oct-21 14:34N 48°23' W 004°29'0 0.0
2014-Oct-21 13:33N 48°23' W 004°29'0 0.0
2014-Oct-21 12:33N 48°23' W 004°29'0 0.0
2014-Oct-21 11:33N 48°23' W 004°29'0 0.0
2014-Oct-21 10:33N 48°23' W 004°29'0 0.0
2014-Oct-21 09:33N 48°23' W 004°29'0 0.0
2014-Oct-21 08:34N 48°23' W 004°29'0 0.0
2014-Oct-21 07:34N 48°23' W 004°29'0 0.0
2014-Oct-21 06:33N 48°23' W 004°29'0 0.0
2014-Oct-21 05:33N 48°23' W 004°29'0 0.0
2014-Oct-21 04:33N 48°23' W 004°29'0 0.0
2014-Oct-21 03:33N 48°23' W 004°29'0 0.0
2014-Oct-21 02:33N 48°23' W 004°29'0 0.0
2014-Oct-21 01:34N 48°23' W 004°29'0 0.0
2014-Oct-21 00:33N 48°23' W 004°29'0 0.0
2014-Oct-20 23:33N 48°23' W 004°29'0 0.0
2014-Oct-20 22:33N 48°23' W 004°29'0 0.0
2014-Oct-20 21:33N 48°23' W 004°29'0 0.0
2014-Oct-20 20:34N 48°23' W 004°29'0 0.0
2014-Oct-20 19:33N 48°23' W 004°29'1 0.8
2014-Oct-20 18:34N 48°22' W 004°29'9 8.8
2014-Oct-20 17:34N 48°18' W 004°41'8 8.4
2014-Oct-20 16:33N 48°11' W 004°48'9 9.3
2014-Oct-20 15:34N 48°02' W 004°46'134 9.5
2014-Oct-20 01:32N 46°40' W 002°10'9 9.2
2014-Oct-20 00:33N 46°32' W 002°03'9 9.0
2014-Oct-19 23:34N 46°24' W 001°58'9 9.3
2014-Oct-19 22:34N 46°16' W 001°52'  
2014-Oct-13 13:07N 46°16' W 001°42'5 9.8
2014-Oct-13 12:33N 46°21' W 001°47'10 9.8
2014-Oct-13 11:33N 46°29' W 001°55'7110.2
2014-Oct-13 04:33N 47°26' W 002°57'6 5.2
2014-Oct-13 03:22N 47°29' W 003°05'0 0.0
2014-Oct-13 02:33N 47°29' W 003°05'0 0.0
2014-Oct-13 01:33N 47°29' W 003°05'  

Dump ship's entire track history